Alexander, Iowa
Current Conditions -  °F | °C
As of 12:35 PM on Sunday 21 Dec 2014 (Local Time) from KCAV Reporting Station
Haze Haze  
Wind Chill: 28°   Ceiling: 800
Heat Index: 37°   Visibility: 4mi
Dew Point: 37°   Wind: 16mph
Humidity: 100%   Direction: 190°S
Pressure: 29.81"   Gusts: 24mph
Location:  42.81°N, 93.48°W
Report Text: KCAV 211835Z AUTO 19014G21KT 4SM BR OVC008 03/03 A2981 RMK AO2
Loading
Personal Weather Stations






























Interactive Weather Map New forecast layout! Learn more

10-Day Weather Forecast

Advertisements
Track Severe Weather on mobile